createdAt,value
2022-09-10T00:04:01.798Z,0.68
2022-09-10T00:14:05.872Z,0.73
2022-09-10T00:24:07.195Z,0.70
2022-09-10T00:34:09.054Z,0.82
2022-09-10T00:44:32.641Z,1.10
2022-09-10T00:54:36.307Z,0.90
2022-09-10T01:04:38.297Z,0.98
2022-09-10T01:14:48.826Z,0.70
2022-09-10T01:24:52.631Z,0.80
2022-09-10T01:35:14.389Z,0.73
2022-09-10T01:45:15.762Z,0.80
2022-09-10T01:55:22.297Z,0.95
2022-09-10T02:05:24.151Z,0.73
2022-09-10T02:15:26.289Z,0.80
2022-09-10T02:25:28.356Z,0.88
2022-09-10T02:35:31.051Z,0.82
2022-09-10T02:45:32.405Z,1.02
2022-09-10T02:55:33.644Z,0.80
2022-09-10T03:05:38.236Z,1.23
2022-09-10T03:15:39.638Z,0.63
2022-09-10T03:25:40.963Z,1.00
2022-09-10T03:35:42.129Z,1.00
2022-09-10T03:45:43.962Z,1.15
2022-09-10T03:55:45.411Z,0.70
2022-09-10T04:05:46.685Z,0.70
2022-09-10T04:15:49.089Z,0.88
2022-09-10T04:25:50.630Z,0.82
2022-09-10T04:35:51.786Z,0.63
2022-09-10T04:45:54.346Z,1.27
2022-09-10T04:55:55.699Z,0.77
2022-09-10T05:05:56.866Z,0.73
2022-09-10T05:15:58.885Z,1.05
2022-09-10T05:26:00.058Z,0.70
2022-09-10T05:36:01.461Z,0.60
2022-09-10T05:46:03.255Z,0.90
2022-09-10T05:56:05.752Z,0.70
2022-09-10T06:06:07.222Z,0.73
2022-09-10T06:16:08.591Z,0.70
2022-09-10T06:26:10.750Z,0.85
2022-09-10T06:36:12.464Z,0.80
2022-09-10T06:46:56.892Z,0.70
2022-09-10T06:56:38.818Z,0.75
2022-09-10T07:06:40.035Z,0.63
2022-09-10T07:16:45.532Z,1.08
2022-09-10T07:26:47.023Z,1.27
2022-09-10T07:36:48.322Z,0.80
2022-09-10T07:46:49.607Z,1.02
2022-09-10T07:56:50.877Z,1.08
2022-09-10T08:06:52.071Z,1.17
2022-09-10T08:16:53.462Z,0.98
2022-09-10T08:26:54.719Z,1.10
2022-09-10T08:36:57.240Z,0.80
2022-09-10T08:47:04.310Z,1.02
2022-09-10T08:57:06.530Z,1.60
2022-09-10T09:07:15.205Z,1.33
2022-09-10T09:17:16.680Z,1.30
2022-09-10T09:27:18.172Z,1.02
2022-09-10T09:37:21.366Z,1.20
2022-09-10T09:47:23.140Z,1.42
2022-09-10T09:57:24.324Z,1.50
2022-09-10T10:07:26.697Z,1.85
2022-09-10T10:17:32.390Z,1.90
2022-09-10T10:27:37.355Z,1.77
2022-09-10T10:38:01.596Z,2.78
2022-09-10T10:48:12.306Z,2.47
2022-09-10T10:58:17.363Z,1.83
2022-09-10T11:08:21.044Z,2.40
2022-09-10T11:18:30.749Z,2.17
2022-09-10T11:28:36.391Z,2.33
2022-09-10T11:38:43.335Z,1.98
2022-09-10T11:48:46.231Z,1.98
2022-09-10T11:58:47.406Z,2.30
2022-09-10T12:08:59.328Z,2.53
2022-09-10T12:19:01.332Z,2.20
2022-09-10T12:29:02.751Z,2.58
2022-09-10T12:39:19.967Z,2.88
2022-09-10T12:49:21.272Z,3.30
2022-09-10T12:59:27.062Z,4.43
2022-09-10T13:09:29.629Z,3.85
2022-09-10T13:19:30.763Z,4.57
2022-09-10T13:29:33.156Z,5.60
2022-09-10T13:39:47.962Z,4.90
2022-09-10T13:50:03.708Z,5.47
2022-09-10T14:00:17.321Z,3.45
2022-09-10T14:10:18.602Z,3.70
2022-09-10T14:20:23.376Z,3.70
2022-09-10T14:30:25.841Z,6.03
2022-09-10T14:40:27.146Z,7.45
2022-09-10T14:50:32.097Z,6.45
2022-09-10T15:00:33.269Z,6.53
2022-09-10T15:10:34.602Z,6.38
2022-09-10T15:20:35.763Z,6.55
2022-09-10T15:30:37.015Z,6.30
2022-09-10T15:40:38.732Z,5.97
2022-09-10T15:50:41.625Z,5.38
2022-09-10T16:00:42.792Z,3.72
2022-09-10T16:10:44.048Z,3.65
2022-09-10T16:20:45.233Z,3.00
2022-09-10T16:30:46.499Z,2.70
2022-09-10T16:40:47.805Z,3.00
2022-09-10T16:50:49.039Z,2.90
2022-09-10T17:00:50.959Z,3.33
2022-09-10T17:10:52.260Z,1.63
2022-09-10T17:20:53.509Z,4.00
2022-09-10T17:30:56.072Z,4.65
2022-09-10T17:40:58.108Z,4.32
2022-09-10T17:50:59.987Z,4.22
2022-09-10T18:01:02.022Z,5.47
2022-09-10T18:11:05.680Z,4.05
2022-09-10T18:21:31.151Z,6.97
2022-09-10T18:31:33.574Z,7.90
2022-09-10T18:41:38.108Z,8.80
2022-09-10T18:51:42.071Z,8.80
2022-09-10T19:01:43.651Z,7.82
2022-09-10T19:11:45.482Z,9.02
2022-09-10T19:21:47.371Z,8.50
2022-09-10T19:31:49.451Z,9.90
2022-09-10T19:41:50.659Z,7.28
2022-09-10T19:51:51.866Z,9.65
2022-09-10T20:01:53.308Z,11.88
2022-09-10T20:11:54.691Z,11.30
2022-09-10T20:21:55.892Z,9.65
2022-09-10T20:31:57.067Z,6.40
2022-09-10T20:41:58.482Z,11.57
2022-09-10T20:51:59.656Z,15.25
2022-09-10T21:02:00.990Z,12.75
2022-09-10T21:12:02.866Z,15.13
2022-09-10T21:22:04.159Z,12.20
2022-09-10T21:32:05.445Z,18.08
2022-09-10T21:42:06.654Z,16.02
2022-09-10T21:52:08.131Z,14.95
2022-09-10T22:02:10.014Z,13.10
2022-09-10T22:12:11.277Z,17.10
2022-09-10T22:22:12.428Z,16.92
2022-09-10T22:32:13.591Z,18.38
2022-09-10T22:42:15.065Z,17.25
2022-09-10T22:52:16.222Z,17.13
2022-09-10T23:02:17.417Z,13.00
2022-09-10T23:12:22.420Z,14.20
2022-09-10T23:22:23.661Z,13.82
2022-09-10T23:32:25.218Z,16.05
2022-09-10T23:42:26.401Z,16.60
2022-09-10T23:52:27.570Z,18.70
